Time;durP1;ratioP1;P1;durP2;ratioP2;P2;SDS_P1;SDS_P2;PMS_P1;PMS_P2;Temp;Humidity;BMP_temperature;BMP_pressure;BME280_temperature;BME280_humidity;BME280_pressure;Samples;Min_cycle;Max_cycle;Signal;HPM_P1;HPM_P2
2022/01/28 00:00:49;;;;;;;3.20;2.80;;;;;;;;;;4994464;28;20151;-47
2022/01/28 00:03:15;;;;;;;4.95;2.70;;;;;;;;;;5001185;28;20108;-46
2022/01/28 00:05:41;;;;;;;3.40;2.63;;;;;;;;;;5001361;28;20112;-44
2022/01/28 00:08:06;;;;;;;3.08;2.17;;;;;;;;;;5006933;28;20129;-45
2022/01/28 00:10:32;;;;;;;2.92;2.65;;;;;;;;;;5013533;28;20046;-44
2022/01/28 00:39:44;;;;;;;4.65;3.03;;;;;;;;;;5005538;28;20591;-47
2022/01/28 00:42:09;;;;;;;4.05;2.95;;;;;;;;;;5008055;28;20140;-44
2022/01/28 00:44:35;;;;;;;3.70;2.35;;;;;;;;;;4997287;28;20030;-44
2022/01/28 00:47:01;;;;;;;4.50;2.40;;;;;;;;;;4991408;28;20228;-46
2022/01/28 00:49:26;;;;;;;2.67;2.38;;;;;;;;;;4996805;28;20846;-44
2022/01/28 00:51:51;;;;;;;2.85;2.42;;;;;;;;;;5012959;28;20037;-47
2022/01/28 00:54:19;;;;;;;7.35;2.72;;;;;;;;;;4998127;28;20037;-46
2022/01/28 00:56:47;;;;;;;3.97;2.72;;;;;;;;;;5000299;28;20042;-45
2022/01/28 00:59:13;;;;;;;5.53;2.88;;;;;;;;;;4998471;28;20049;-45
2022/01/28 01:01:39;;;;;;;2.95;2.58;;;;;;;;;;4996375;28;20053;-44
2022/01/28 01:04:05;;;;;;;3.30;2.47;;;;;;;;;;5004468;28;20030;-44
2022/01/28 01:06:31;;;;;;;4.38;2.70;;;;;;;;;;4992826;28;20038;-44
2022/01/28 01:08:56;;;;;;;5.40;3.30;;;;;;;;;;5001215;28;20062;-45
2022/01/28 01:11:23;;;;;;;3.65;2.95;;;;;;;;;;5005323;28;20133;-46
2022/01/28 01:13:49;;;;;;;3.90;3.30;;;;;;;;;;5004536;28;20038;-44
2022/01/28 01:16:19;;;;;;;4.28;3.25;;;;;;;;;;4996689;28;20034;-46
2022/01/28 01:21:16;;;;;;;4.32;3.35;;;;;;;;;;5002363;28;20435;-44
2022/01/28 01:23:50;;;;;;;6.00;3.42;;;;;;;;;;5004967;28;20014;-46
2022/01/28 01:26:15;;;;;;;4.22;3.03;;;;;;;;;;4994040;28;20045;-47
2022/01/28 01:28:42;;;;;;;4.20;3.80;;;;;;;;;;5004587;28;20034;-44
2022/01/28 01:31:10;;;;;;;4.70;4.07;;;;;;;;;;5006566;28;20085;-45
2022/01/28 01:33:42;;;;;;;3.78;3.20;;;;;;;;;;4997505;28;20041;-44
2022/01/28 01:36:07;;;;;;;3.75;2.97;;;;;;;;;;4999893;28;20034;-47
2022/01/28 01:38:36;;;;;;;3.78;3.38;;;;;;;;;;5007802;28;20095;-44
2022/01/28 01:41:06;;;;;;;4.77;3.30;;;;;;;;;;5013577;28;20041;-44
2022/01/28 01:43:52;;;;;;;4.65;3.13;;;;;;;;;;5008748;28;20541;-43
2022/01/28 01:52:03;;;;;;;3.70;3.03;;;;;;;;;;4995919;28;20034;-45
2022/01/28 01:54:28;;;;;;;6.35;3.75;;;;;;;;;;5008877;28;20052;-45
2022/01/28 01:56:54;;;;;;;5.15;3.72;;;;;;;;;;5004999;28;20030;-44
2022/01/28 01:59:19;;;;;;;4.50;3.22;;;;;;;;;;4998231;28;20039;-44
2022/01/28 02:01:45;;;;;;;3.75;3.03;;;;;;;;;;5010540;28;20499;-46
2022/01/28 02:04:10;;;;;;;3.53;3.15;;;;;;;;;;4990912;28;20062;-44
2022/01/28 02:06:35;;;;;;;5.72;3.45;;;;;;;;;;4997660;28;20092;-46
2022/01/28 02:09:01;;;;;;;4.28;3.65;;;;;;;;;;5005730;28;20053;-44
2022/01/28 02:11:26;;;;;;;5.03;4.22;;;;;;;;;;5007942;28;20376;-44
2022/01/28 02:13:52;;;;;;;7.88;3.28;;;;;;;;;;5010319;28;20038;-43
2022/01/28 02:16:18;;;;;;;5.20;3.38;;;;;;;;;;4996899;28;20152;-44
2022/01/28 02:18:43;;;;;;;5.35;4.05;;;;;;;;;;5007386;28;20141;-46
2022/01/28 02:21:11;;;;;;;4.68;3.85;;;;;;;;;;5005293;28;20040;-43
2022/01/28 02:23:37;;;;;;;4.20;3.80;;;;;;;;;;5011604;28;20053;-43
2022/01/28 02:26:03;;;;;;;3.30;3.00;;;;;;;;;;5019482;28;20511;-45
2022/01/28 02:28:33;;;;;;;6.63;3.25;;;;;;;;;;4997298;28;20175;-45
2022/01/28 02:30:59;;;;;;;4.55;3.53;;;;;;;;;;5005345;28;20036;-45
2022/01/28 02:33:26;;;;;;;5.82;3.53;;;;;;;;;;5001157;28;20061;-44
2022/01/28 02:35:51;;;;;;;6.22;3.80;;;;;;;;;;4991012;28;20081;-44
2022/01/28 02:38:19;;;;;;;5.43;4.40;;;;;;;;;;5004013;28;20042;-46
2022/01/28 02:40:49;;;;;;;4.30;3.78;;;;;;;;;;5008147;28;20072;-44
2022/01/28 02:45:48;;;;;;;7.57;4.22;;;;;;;;;;5007122;28;20033;-44
2022/01/28 02:48:23;;;;;;;6.78;3.75;;;;;;;;;;5009215;28;20099;-44
2022/01/28 02:53:22;;;;;;;5.95;4.57;;;;;;;;;;4998531;28;20081;-44
2022/01/28 02:55:47;;;;;;;3.78;3.47;;;;;;;;;;4997900;28;20145;-45
2022/01/28 02:58:31;;;;;;;5.00;3.97;;;;;;;;;;5004456;28;20806;-45
2022/01/28 03:00:57;;;;;;;5.20;3.70;;;;;;;;;;5011488;28;20065;-43
2022/01/28 03:03:23;;;;;;;7.80;4.32;;;;;;;;;;5010909;28;20046;-45
2022/01/28 03:05:49;;;;;;;7.60;4.30;;;;;;;;;;5001245;28;20116;-44
2022/01/28 03:08:15;;;;;;;5.45;3.75;;;;;;;;;;4994317;28;20048;-43
2022/01/28 03:10:45;;;;;;;4.45;4.05;;;;;;;;;;5011732;28;20679;-44
2022/01/28 03:13:27;;;;;;;5.20;4.07;;;;;;;;;;5004755;28;20416;-44
2022/01/28 03:15:54;;;;;;;5.10;3.70;;;;;;;;;;5000482;28;20030;-44
2022/01/28 03:18:25;;;;;;;4.72;4.10;;;;;;;;;;4994784;28;20038;-46
2022/01/28 03:23:19;;;;;;;7.28;4.03;;;;;;;;;;5007163;28;20045;-44
2022/01/28 03:25:46;;;;;;;4.80;3.60;;;;;;;;;;5002410;28;20041;-44
2022/01/28 03:28:12;;;;;;;5.80;4.00;;;;;;;;;;5006754;28;20049;-44
2022/01/28 03:30:37;;;;;;;5.32;4.03;;;;;;;;;;4993586;28;20765;-44
2022/01/28 03:33:03;;;;;;;5.05;3.95;;;;;;;;;;4998875;28;20531;-44
2022/01/28 03:35:29;;;;;;;5.07;4.35;;;;;;;;;;5003161;28;20030;-44
2022/01/28 03:38:00;;;;;;;4.95;3.88;;;;;;;;;;5007279;28;20032;-44
2022/01/28 03:40:25;;;;;;;4.88;4.40;;;;;;;;;;5003086;28;20078;-44
2022/01/28 03:42:50;;;;;;;5.60;4.50;;;;;;;;;;5003871;28;20041;-43
2022/01/28 03:45:16;;;;;;;6.53;4.70;;;;;;;;;;5001619;28;20053;-45
2022/01/28 03:47:41;;;;;;;6.20;4.00;;;;;;;;;;5005246;28;20495;-43
2022/01/28 03:50:07;;;;;;;6.60;5.18;;;;;;;;;;5008835;28;20038;-44
2022/01/28 03:52:32;;;;;;;5.60;4.50;;;;;;;;;;4997057;28;20435;-45
2022/01/28 03:54:57;;;;;;;8.77;4.20;;;;;;;;;;5000311;28;20485;-43
2022/01/28 03:57:22;;;;;;;5.45;4.50;;;;;;;;;;5003692;28;20030;-43
2022/01/28 03:59:47;;;;;;;5.47;4.55;;;;;;;;;;5006662;28;20045;-43
2022/01/28 04:02:13;;;;;;;5.40;4.90;;;;;;;;;;5006489;28;20053;-44
2022/01/28 04:12:50;;;;;;;5.35;4.65;;;;;;;;;;5003306;28;20100;-44
2022/01/28 04:15:24;;;;;;;6.00;4.88;;;;;;;;;;5005830;28;20435;-44
2022/01/28 04:17:50;;;;;;;6.28;4.75;;;;;;;;;;5006761;28;20500;-44
2022/01/28 04:20:15;;;;;;;7.65;4.93;;;;;;;;;;5004821;28;20037;-43
2022/01/28 04:22:40;;;;;;;6.22;5.18;;;;;;;;;;4992062;28;20062;-45
2022/01/28 04:25:06;;;;;;;9.13;5.45;;;;;;;;;;5006310;28;20041;-45
2022/01/28 04:27:31;;;;;;;7.80;4.60;;;;;;;;;;5001452;28;20038;-44
2022/01/28 04:29:56;;;;;;;5.40;4.75;;;;;;;;;;4998955;28;20046;-43
2022/01/28 04:32:24;;;;;;;6.00;4.70;;;;;;;;;;4999108;28;20125;-43
2022/01/28 04:34:49;;;;;;;5.78;5.15;;;;;;;;;;5006642;28;20044;-44
2022/01/28 04:37:26;;;;;;;7.60;4.78;;;;;;;;;;5000350;28;20025;-43
2022/01/28 04:40:14;;;;;;;6.35;4.55;;;;;;;;;;5004369;28;20038;-43
2022/01/28 04:48:17;;;;;;;8.88;5.15;;;;;;;;;;4991549;28;20094;-43
2022/01/28 05:03:29;;;;;;;6.47;4.25;;;;;;;;;;4996431;28;20395;-43
2022/01/28 05:11:32;;;;;;;7.10;4.95;;;;;;;;;;5003601;28;20662;-43
2022/01/28 05:27:10;;;;;;;6.50;4.35;;;;;;;;;;5001206;28;20467;-43
2022/01/28 05:29:36;;;;;;;6.28;4.20;;;;;;;;;;5005253;28;20048;-43
2022/01/28 05:32:01;;;;;;;6.50;4.22;;;;;;;;;;5004603;28;20034;-45
2022/01/28 05:34:27;;;;;;;7.03;4.20;;;;;;;;;;5002856;28;20096;-44
2022/01/28 05:36:53;;;;;;;5.40;4.82;;;;;;;;;;5010376;28;20033;-45
2022/01/28 05:39:19;;;;;;;5.60;4.80;;;;;;;;;;5007053;28;20368;-44
2022/01/28 05:41:44;;;;;;;5.13;4.63;;;;;;;;;;5000454;28;20037;-44
2022/01/28 05:44:09;;;;;;;6.57;4.43;;;;;;;;;;5002290;28;20045;-42
2022/01/28 05:46:35;;;;;;;6.85;4.90;;;;;;;;;;5005241;28;20034;-46
2022/01/28 05:49:00;;;;;;;7.18;4.75;;;;;;;;;;5003353;28;20133;-46
2022/01/28 05:51:26;;;;;;;7.20;4.80;;;;;;;;;;4993837;28;20389;-45
2022/01/28 05:53:53;;;;;;;5.35;4.72;;;;;;;;;;4998737;28;20476;-45
2022/01/28 05:56:19;;;;;;;6.57;5.50;;;;;;;;;;5004626;28;20041;-45
2022/01/28 05:58:44;;;;;;;6.72;6.03;;;;;;;;;;5000516;28;20034;-45
2022/01/28 06:01:09;;;;;;;6.15;4.70;;;;;;;;;;4995890;28;20088;-45
2022/01/28 06:03:34;;;;;;;5.70;4.60;;;;;;;;;;4995584;28;20052;-43
2022/01/28 06:06:00;;;;;;;6.03;5.05;;;;;;;;;;5007163;28;20045;-44
2022/01/28 06:08:25;;;;;;;5.03;4.53;;;;;;;;;;5009313;28;20097;-43
2022/01/28 06:10:50;;;;;;;6.32;5.57;;;;;;;;;;5003023;28;20041;-44
2022/01/28 06:13:16;;;;;;;7.28;4.93;;;;;;;;;;4994753;28;20038;-43
2022/01/28 06:15:42;;;;;;;7.20;5.03;;;;;;;;;;5010703;28;20095;-46
2022/01/28 06:18:08;;;;;;;8.02;5.22;;;;;;;;;;5011074;28;20183;-44
2022/01/28 06:20:33;;;;;;;6.40;5.38;;;;;;;;;;5007170;28;20061;-43
2022/01/28 06:22:58;;;;;;;5.03;4.50;;;;;;;;;;5007202;28;20089;-44
2022/01/28 06:25:24;;;;;;;6.35;4.65;;;;;;;;;;5007034;28;20121;-45
2022/01/28 06:27:49;;;;;;;6.93;4.43;;;;;;;;;;5007727;28;20040;-45
2022/01/28 06:30:16;;;;;;;5.72;4.72;;;;;;;;;;5006194;28;20037;-43
2022/01/28 06:32:42;;;;;;;4.90;4.38;;;;;;;;;;4999541;28;20100;-44
2022/01/28 06:35:08;;;;;;;7.05;5.38;;;;;;;;;;5003845;28;20038;-44
2022/01/28 06:37:34;;;;;;;5.93;5.32;;;;;;;;;;5008077;28;20480;-43
2022/01/28 06:39:59;;;;;;;7.90;5.15;;;;;;;;;;5006984;28;20527;-45
2022/01/28 06:42:24;;;;;;;7.15;5.03;;;;;;;;;;5007120;28;20073;-43
2022/01/28 06:44:50;;;;;;;5.65;5.07;;;;;;;;;;5003068;28;20043;-43
2022/01/28 06:47:15;;;;;;;7.20;4.85;;;;;;;;;;4997670;28;20085;-43
2022/01/28 06:49:40;;;;;;;6.03;5.43;;;;;;;;;;5016789;28;20614;-43
2022/01/28 06:52:06;;;;;;;8.18;5.55;;;;;;;;;;5008920;28;20038;-44
2022/01/28 06:54:31;;;;;;;7.13;5.78;;;;;;;;;;5009258;28;20029;-43
2022/01/28 06:56:56;;;;;;;8.85;6.32;;;;;;;;;;4989347;28;20046;-43
2022/01/28 06:59:22;;;;;;;8.75;6.47;;;;;;;;;;5011136;28;20061;-43
2022/01/28 07:01:47;;;;;;;9.40;6.28;;;;;;;;;;4994501;28;20064;-43
2022/01/28 07:04:12;;;;;;;8.20;6.65;;;;;;;;;;5003895;28;20099;-43
2022/01/28 07:06:37;;;;;;;10.70;7.13;;;;;;;;;;5004733;28;20046;-44
2022/01/28 07:09:03;;;;;;;7.40;5.70;;;;;;;;;;5009402;28;20041;-44
2022/01/28 07:11:28;;;;;;;9.65;5.95;;;;;;;;;;4996666;28;21027;-45
2022/01/28 07:13:53;;;;;;;9.52;7.05;;;;;;;;;;4999876;28;20475;-44
2022/01/28 07:16:19;;;;;;;8.00;6.43;;;;;;;;;;4994757;28;20404;-43
2022/01/28 07:18:44;;;;;;;9.82;5.93;;;;;;;;;;5006016;28;20400;-43
2022/01/28 07:21:09;;;;;;;7.13;6.40;;;;;;;;;;5008102;28;20092;-43
2022/01/28 07:23:34;;;;;;;6.70;6.00;;;;;;;;;;5005870;28;20043;-44
2022/01/28 07:26:00;;;;;;;6.93;6.18;;;;;;;;;;5004026;28;20041;-43
2022/01/28 07:28:26;;;;;;;7.30;5.70;;;;;;;;;;5008508;28;20076;-42
2022/01/28 07:30:51;;;;;;;8.27;6.53;;;;;;;;;;5000849;28;20069;-44
2022/01/28 07:33:16;;;;;;;8.52;7.38;;;;;;;;;;4999651;28;20062;-44
2022/01/28 07:35:42;;;;;;;10.63;7.07;;;;;;;;;;4995558;28;20041;-43
2022/01/28 07:38:07;;;;;;;8.50;6.68;;;;;;;;;;4997814;28;20448;-44
2022/01/28 07:40:32;;;;;;;7.45;6.75;;;;;;;;;;5002955;28;20143;-43
2022/01/28 07:42:57;;;;;;;7.03;6.25;;;;;;;;;;5014006;28;20053;-43
2022/01/28 07:45:24;;;;;;;8.40;5.90;;;;;;;;;;5004118;28;20044;-43
2022/01/28 07:47:49;;;;;;;7.47;6.70;;;;;;;;;;5006535;28;20032;-45
2022/01/28 07:50:15;;;;;;;10.45;6.65;;;;;;;;;;5003289;28;20453;-45
2022/01/28 07:52:40;;;;;;;10.15;7.40;;;;;;;;;;4999439;28;20057;-45
2022/01/28 07:55:07;;;;;;;7.03;6.13;;;;;;;;;;4995690;28;20065;-46
2022/01/28 07:57:32;;;;;;;6.90;6.20;;;;;;;;;;5002022;28;20029;-47
2022/01/28 07:59:58;;;;;;;8.32;7.47;;;;;;;;;;4992454;28;20134;-46
2022/01/28 08:02:23;;;;;;;9.35;7.72;;;;;;;;;;4996490;28;20533;-45
2022/01/28 08:04:48;;;;;;;7.13;6.43;;;;;;;;;;4998711;28;20076;-45
2022/01/28 08:07:14;;;;;;;8.00;7.20;;;;;;;;;;5002209;28;20050;-45
2022/01/28 08:09:39;;;;;;;8.23;6.88;;;;;;;;;;4996635;28;20038;-45
2022/01/28 08:12:05;;;;;;;7.85;7.03;;;;;;;;;;5006950;28;20476;-46
2022/01/28 08:14:33;;;;;;;8.77;7.88;;;;;;;;;;4998790;28;20041;-45
2022/01/28 08:16:59;;;;;;;7.57;6.70;;;;;;;;;;5008286;28;20121;-47
2022/01/28 08:19:24;;;;;;;10.15;6.38;;;;;;;;;;5001938;28;20123;-45
2022/01/28 08:21:49;;;;;;;8.25;6.95;;;;;;;;;;5010147;28;20083;-46
2022/01/28 08:24:15;;;;;;;7.78;6.85;;;;;;;;;;5001393;28;20062;-46
2022/01/28 08:26:40;;;;;;;9.68;8.30;;;;;;;;;;4998488;28;20026;-44
2022/01/28 08:29:06;;;;;;;8.80;7.25;;;;;;;;;;4999731;28;20045;-45
2022/01/28 08:31:31;;;;;;;8.75;7.30;;;;;;;;;;5007286;28;20436;-46
2022/01/28 08:33:56;;;;;;;8.13;6.10;;;;;;;;;;5002042;28;20440;-45
2022/01/28 08:36:22;;;;;;;8.07;6.90;;;;;;;;;;4996831;28;20050;-45
2022/01/28 08:38:49;;;;;;;10.85;7.40;;;;;;;;;;4998869;28;20030;-46
2022/01/28 08:41:15;;;;;;;8.95;7.97;;;;;;;;;;5010399;28;20137;-43
2022/01/28 08:43:41;;;;;;;9.35;7.40;;;;;;;;;;5008958;28;20149;-45
2022/01/28 08:46:06;;;;;;;8.25;7.45;;;;;;;;;;5014177;28;20045;-45
2022/01/28 08:48:31;;;;;;;9.00;7.63;;;;;;;;;;4992106;28;20104;-45
2022/01/28 08:50:57;;;;;;;7.93;6.82;;;;;;;;;;4998681;28;20047;-45
2022/01/28 08:53:22;;;;;;;8.70;7.25;;;;;;;;;;5002442;28;20042;-49
2022/01/28 08:55:47;;;;;;;7.70;6.43;;;;;;;;;;4309552;28;10000605;-47
2022/01/28 08:58:13;;;;;;;7.50;6.47;;;;;;;;;;4998719;28;20044;-45
2022/01/28 09:00:38;;;;;;;7.40;6.10;;;;;;;;;;5004661;28;20033;-48
2022/01/28 09:03:03;;;;;;;9.77;8.32;;;;;;;;;;5003248;28;20041;-46
2022/01/28 09:05:29;;;;;;;11.13;7.80;;;;;;;;;;4993783;28;20042;-47
2022/01/28 09:07:55;;;;;;;9.15;6.75;;;;;;;;;;4995705;28;20049;-46
2022/01/28 09:10:24;;;;;;;;;;;;;;;;;;4654130;28;10000370;-46
2022/01/28 09:15:31;;;;;;;6.70;5.03;;;;;;;;;;4986469;28;20384;-45
2022/01/28 09:17:56;;;;;;;6.22;4.65;;;;;;;;;;5002615;28;20495;-45
2022/01/28 09:20:22;;;;;;;4.85;4.40;;;;;;;;;;5005922;28;20034;-47
2022/01/28 09:22:47;;;;;;;4.95;4.05;;;;;;;;;;4990429;28;20172;-44
2022/01/28 09:25:12;;;;;;;7.20;4.60;;;;;;;;;;4996198;28;20034;-46
2022/01/28 09:27:37;;;;;;;5.82;4.40;;;;;;;;;;5002059;28;20034;-44
2022/01/28 09:30:03;;;;;;;6.75;4.80;;;;;;;;;;5002112;28;20078;-45
2022/01/28 09:32:28;;;;;;;4.82;4.40;;;;;;;;;;4998806;28;20049;-45
2022/01/28 09:34:53;;;;;;;4.90;4.43;;;;;;;;;;4999190;28;20412;-45
2022/01/28 09:37:19;;;;;;;6.47;4.90;;;;;;;;;;4991520;28;20038;-45
2022/01/28 09:39:45;;;;;;;5.15;4.50;;;;;;;;;;4990045;28;20137;-48
2022/01/28 09:42:13;;;;;;;4.80;4.25;;;;;;;;;;5003454;28;20149;-46
2022/01/28 09:44:39;;;;;;;5.75;3.95;;;;;;;;;;5000263;28;20597;-44
2022/01/28 09:47:04;;;;;;;7.57;4.57;;;;;;;;;;5001666;28;20160;-42
2022/01/28 09:49:31;;;;;;;6.70;4.47;;;;;;;;;;4998025;28;20034;-46
2022/01/28 09:51:56;;;;;;;5.38;4.18;;;;;;;;;;5005446;28;20125;-45
2022/01/28 09:54:21;;;;;;;5.57;4.25;;;;;;;;;;5010185;28;20219;-46
2022/01/28 09:56:47;;;;;;;5.72;4.55;;;;;;;;;;4995196;28;20041;-47
2022/01/28 09:59:12;;;;;;;5.97;4.55;;;;;;;;;;4996804;28;20542;-46
2022/01/28 10:01:50;;;;;;;9.00;4.55;;;;;;;;;;5003797;28;20065;-45
2022/01/28 10:04:17;;;;;;;6.00;4.30;;;;;;;;;;5004229;28;20057;-47
2022/01/28 10:06:44;;;;;;;4.57;3.80;;;;;;;;;;5011451;28;20749;-45
2022/01/28 10:09:10;;;;;;;5.07;4.22;;;;;;;;;;5006143;28;20419;-46
2022/01/28 10:11:37;;;;;;;4.78;4.28;;;;;;;;;;5005451;28;20037;-46
2022/01/28 10:14:09;;;;;;;9.15;4.75;;;;;;;;;;5008822;28;20061;-45
2022/01/28 10:16:34;;;;;;;7.05;4.38;;;;;;;;;;4995917;28;20050;-46
2022/01/28 10:19:04;;;;;;;5.15;4.22;;;;;;;;;;4991886;28;20076;-44
2022/01/28 10:21:29;;;;;;;8.95;4.25;;;;;;;;;;5000285;28;20100;-46
2022/01/28 10:23:54;;;;;;;6.18;4.55;;;;;;;;;;4998345;28;20038;-45
2022/01/28 10:26:26;;;;;;;4.88;4.40;;;;;;;;;;5009960;28;20074;-47
2022/01/28 10:28:53;;;;;;;4.93;4.35;;;;;;;;;;5001937;28;20044;-46
2022/01/28 10:31:18;;;;;;;4.78;3.90;;;;;;;;;;4989140;28;20037;-45
2022/01/28 10:33:43;;;;;;;7.38;4.40;;;;;;;;;;4999009;28;20034;-45
2022/01/28 10:36:08;;;;;;;7.25;4.70;;;;;;;;;;5010549;28;20060;-46
2022/01/28 10:38:38;;;;;;;7.95;4.88;;;;;;;;;;5002173;28;20040;-44
2022/01/28 10:41:03;;;;;;;;;;;;;;;;;;4991616;28;20042;-45
2022/01/28 10:43:28;;;;;;;4.60;4.05;;;;;;;;;;4997605;28;19993;-45
2022/01/28 10:46:02;;;;;;;6.75;4.35;;;;;;;;;;5001059;28;20067;-43
2022/01/28 10:48:28;;;;;;;5.75;4.00;;;;;;;;;;5000339;28;20121;-46
2022/01/28 10:50:55;;;;;;;7.90;3.83;;;;;;;;;;4994256;28;20132;-48
2022/01/28 10:53:21;;;;;;;4.20;3.80;;;;;;;;;;4999405;28;20082;-45
2022/01/28 10:55:50;;;;;;;5.65;3.78;;;;;;;;;;4998890;28;20045;-47
2022/01/28 10:58:16;;;;;;;5.95;4.10;;;;;;;;;;4997395;28;20045;-44
2022/01/28 11:00:49;;;;;;;5.10;3.92;;;;;;;;;;5002729;28;20029;-44
2022/01/28 11:03:16;;;;;;;4.28;3.53;;;;;;;;;;4997107;28;20062;-46
2022/01/28 11:05:43;;;;;;;6.88;4.22;;;;;;;;;;5006117;28;20096;-47
2022/01/28 11:08:11;;;;;;;6.72;5.22;;;;;;;;;;5009321;28;20026;-45
2022/01/28 11:10:37;;;;;;;6.43;4.05;;;;;;;;;;5003637;28;20046;-44
2022/01/28 11:13:03;;;;;;;6.25;4.60;;;;;;;;;;4306211;28;10000669;-44
2022/01/28 11:15:29;;;;;;;4.90;3.67;;;;;;;;;;5009039;28;20041;-45
2022/01/28 11:17:54;;;;;;;5.28;3.33;;;;;;;;;;4999745;28;20034;-44
2022/01/28 11:20:22;;;;;;;4.18;3.72;;;;;;;;;;4987250;28;20034;-44
2022/01/28 11:23:04;;;;;;;5.85;4.05;;;;;;;;;;4997280;28;20041;-47
2022/01/28 11:25:44;;;;;;;5.90;4.00;;;;;;;;;;5001834;28;20046;-47
2022/01/28 11:28:10;;;;;;;6.20;3.55;;;;;;;;;;5003595;28;20129;-44
2022/01/28 11:30:35;;;;;;;5.72;3.55;;;;;;;;;;5002124;28;20115;-45
2022/01/28 11:33:04;;;;;;;4.82;4.20;;;;;;;;;;4993345;28;20038;-44
2022/01/28 11:35:34;;;;;;;6.15;4.47;;;;;;;;;;4993434;28;20113;-47
2022/01/28 11:38:04;;;;;;;6.07;3.97;;;;;;;;;;5006334;28;20073;-45
2022/01/28 11:40:50;;;;;;;4.03;2.90;;;;;;;;;;4999985;28;20057;-46
2022/01/28 11:43:15;;;;;;;6.13;4.65;;;;;;;;;;4990899;28;20038;-44
2022/01/28 11:45:41;;;;;;;6.13;4.25;;;;;;;;;;4999737;28;20419;-47
2022/01/28 11:48:07;;;;;;;7.43;5.03;;;;;;;;;;4994143;28;20038;-48
2022/01/28 11:50:32;;;;;;;5.45;4.75;;;;;;;;;;4991640;28;20087;-43
2022/01/28 11:52:58;;;;;;;7.50;5.13;;;;;;;;;;4988770;28;20057;-45
2022/01/28 11:55:26;;;;;;;9.48;5.60;;;;;;;;;;5001379;28;20042;-45
2022/01/28 11:57:58;;;;;;;5.70;5.20;;;;;;;;;;4999645;28;20034;-44
2022/01/28 12:00:24;;;;;;;5.00;4.50;;;;;;;;;;4999326;28;20048;-44
2022/01/28 12:02:51;;;;;;;8.30;5.43;;;;;;;;;;5001277;28;20099;-44
2022/01/28 12:05:31;;;;;;;10.35;6.05;;;;;;;;;;4996358;28;20844;-46
2022/01/28 12:08:00;;;;;;;7.13;6.47;;;;;;;;;;5002587;28;20487;-46
2022/01/28 12:10:26;;;;;;;7.57;6.72;;;;;;;;;;5009814;28;20423;-44
2022/01/28 12:13:02;;;;;;;7.20;6.50;;;;;;;;;;5003733;28;20038;-44
2022/01/28 12:15:29;;;;;;;8.85;5.88;;;;;;;;;;4993042;28;20101;-44
2022/01/28 12:18:06;;;;;;;5.00;4.50;;;;;;;;;;4988524;28;20048;-44
2022/01/28 12:20:36;;;;;;;6.15;4.00;;;;;;;;;;5010175;28;20037;-44
2022/01/28 12:23:10;;;;;;;4.55;4.15;;;;;;;;;;5002671;28;20972;-44
2022/01/28 12:25:35;;;;;;;4.68;3.92;;;;;;;;;;5000326;28;20116;-44
2022/01/28 12:28:18;;;;;;;4.93;4.45;;;;;;;;;;5002060;28;20170;-45
2022/01/28 12:31:03;;;;;;;5.00;4.15;;;;;;;;;;4996927;28;20034;-44
2022/01/28 12:33:30;;;;;;;5.00;4.50;;;;;;;;;;5003467;28;20040;-44
2022/01/28 12:35:57;;;;;;;4.85;4.32;;;;;;;;;;4997332;28;20542;-45
2022/01/28 12:38:26;;;;;;;5.28;4.80;;;;;;;;;;5001302;28;20450;-45
2022/01/28 12:40:53;;;;;;;4.63;4.00;;;;;;;;;;5007201;28;20037;-46
2022/01/28 12:43:20;;;;;;;4.75;4.07;;;;;;;;;;4998780;28;20063;-48
2022/01/28 12:45:56;;;;;;;4.00;3.60;;;;;;;;;;4996861;28;20472;-45
2022/01/28 12:48:21;;;;;;;4.78;3.63;;;;;;;;;;5002706;28;20453;-45
2022/01/28 12:50:50;;;;;;;4.13;3.60;;;;;;;;;;4993637;28;20034;-44
2022/01/28 12:53:25;;;;;;;4.65;4.20;;;;;;;;;;4995285;28;20029;-45
2022/01/28 12:55:51;;;;;;;4.40;3.90;;;;;;;;;;5003674;28;20030;-46
2022/01/28 12:58:16;;;;;;;5.10;4.70;;;;;;;;;;5000817;28;20064;-49
2022/01/28 13:00:41;;;;;;;5.72;5.13;;;;;;;;;;5000605;28;20114;-45
2022/01/28 13:03:19;;;;;;;6.15;4.10;;;;;;;;;;5000066;28;20081;-47
2022/01/28 13:05:54;;;;;;;5.25;4.75;;;;;;;;;;5001527;28;20573;-45
2022/01/28 13:08:25;;;;;;;5.63;5.03;;;;;;;;;;4989080;28;20517;-46
2022/01/28 13:10:50;;;;;;;6.80;5.68;;;;;;;;;;5002615;28;20053;-48
2022/01/28 13:13:15;;;;;;;5.45;4.95;;;;;;;;;;4999099;28;20794;-45
2022/01/28 13:15:41;;;;;;;6.25;5.53;;;;;;;;;;5000049;28;20033;-46
2022/01/28 13:18:07;;;;;;;6.65;5.88;;;;;;;;;;4993452;28;20042;-45
2022/01/28 13:20:40;;;;;;;5.70;4.13;;;;;;;;;;4310305;28;10000652;-44
2022/01/28 13:23:05;;;;;;;7.07;5.55;;;;;;;;;;5005606;28;20180;-44
2022/01/28 13:25:31;;;;;;;5.93;5.32;;;;;;;;;;4997043;28;20105;-44
2022/01/28 13:28:03;;;;;;;6.07;5.20;;;;;;;;;;5002147;28;20052;-44
2022/01/28 13:30:33;;;;;;;7.97;6.47;;;;;;;;;;5009390;28;20117;-45
2022/01/28 13:33:06;;;;;;;5.38;4.65;;;;;;;;;;4995713;28;20365;-45
2022/01/28 13:35:33;;;;;;;5.90;4.93;;;;;;;;;;4990018;28;20034;-44
2022/01/28 13:38:01;;;;;;;5.40;4.90;;;;;;;;;;4987117;28;20061;-44
2022/01/28 13:40:27;;;;;;;6.53;5.53;;;;;;;;;;4650951;28;10000409;-44
2022/01/28 13:42:55;;;;;;;6.57;5.75;;;;;;;;;;5006040;28;20153;-46
2022/01/28 13:45:27;;;;;;;5.85;5.25;;;;;;;;;;5000053;28;20042;-45
2022/01/28 13:47:53;;;;;;;5.40;4.55;;;;;;;;;;4999649;28;20045;-45
2022/01/28 13:50:23;;;;;;;6.45;5.63;;;;;;;;;;5006291;28;20042;-46
2022/01/28 13:52:52;;;;;;;10.27;5.78;;;;;;;;;;4996336;28;20038;-45
2022/01/28 13:55:30;;;;;;;5.25;4.75;;;;;;;;;;4993849;28;20100;-44
2022/01/28 13:58:04;;;;;;;5.70;5.10;;;;;;;;;;5007329;28;20068;-43
2022/01/28 14:00:41;;;;;;;7.00;5.88;;;;;;;;;;4987454;28;20042;-44
2022/01/28 14:03:23;;;;;;;5.05;4.55;;;;;;;;;;4991871;28;20057;-47
2022/01/28 14:05:48;;;;;;;5.13;4.63;;;;;;;;;;4968605;28;20031;-46
2022/01/28 14:08:13;;;;;;;7.15;4.70;;;;;;;;;;4978028;28;20042;-45
2022/01/28 14:10:38;;;;;;;6.35;4.50;;;;;;;;;;4980135;28;20035;-44
2022/01/28 14:13:20;;;;;;;6.32;4.43;;;;;;;;;;4985529;28;20038;-45
2022/01/28 14:16:00;;;;;;;4.22;3.78;;;;;;;;;;4979214;28;20046;-45
2022/01/28 14:18:26;;;;;;;5.30;4.32;;;;;;;;;;4976099;28;20050;-44
2022/01/28 14:20:51;;;;;;;4.85;4.20;;;;;;;;;;4975888;28;20085;-43
2022/01/28 14:23:16;;;;;;;5.82;4.05;;;;;;;;;;4974224;28;20053;-45
2022/01/28 14:25:41;;;;;;;6.22;4.63;;;;;;;;;;4973814;28;20133;-45
2022/01/28 14:28:36;;;;;;;5.22;4.65;;;;;;;;;;4984661;28;20133;-44
2022/01/28 14:31:08;;;;;;;4.75;4.35;;;;;;;;;;4985862;28;20042;-46
2022/01/28 14:33:33;;;;;;;5.78;4.68;;;;;;;;;;4987588;28;20137;-44
2022/01/28 14:35:58;;;;;;;5.47;4.88;;;;;;;;;;5005811;28;20153;-46
2022/01/28 14:38:24;;;;;;;5.90;4.88;;;;;;;;;;4998124;28;20038;-45
2022/01/28 14:40:49;;;;;;;7.15;5.05;;;;;;;;;;5007083;28;20050;-46
2022/01/28 14:43:14;;;;;;;5.50;5.00;;;;;;;;;;5003327;28;20054;-45
2022/01/28 14:45:40;;;;;;;5.95;4.55;;;;;;;;;;5001157;28;20079;-44
2022/01/28 14:48:05;;;;;;;5.82;5.05;;;;;;;;;;4995473;28;20030;-44
2022/01/28 14:50:32;;;;;;;7.78;5.30;;;;;;;;;;5001440;28;20058;-44
2022/01/28 14:52:58;;;;;;;4.93;4.43;;;;;;;;;;5007029;28;20061;-46
2022/01/28 14:55:23;;;;;;;6.57;4.57;;;;;;;;;;4995704;28;20445;-46
2022/01/28 14:57:48;;;;;;;6.22;4.47;;;;;;;;;;4997484;28;20588;-46
2022/01/28 15:00:14;;;;;;;5.35;4.45;;;;;;;;;;4998624;28;20104;-49
2022/01/28 15:02:39;;;;;;;5.60;4.18;;;;;;;;;;5001326;28;20081;-48
2022/01/28 15:05:05;;;;;;;3.42;3.13;;;;;;;;;;5000547;28;20037;-48
2022/01/28 15:07:32;;;;;;;2.30;2.10;;;;;;;;;;4993996;28;20092;-45
2022/01/28 15:09:59;;;;;;;3.95;1.77;;;;;;;;;;4993073;28;20049;-47
2022/01/28 15:12:24;;;;;;;3.20;2.05;;;;;;;;;;4990223;28;20035;-46
2022/01/28 15:14:50;;;;;;;1.50;1.38;;;;;;;;;;4998372;28;20104;-45
2022/01/28 15:17:16;;;;;;;2.30;1.27;;;;;;;;;;5003421;28;20030;-44
2022/01/28 15:19:42;;;;;;;0.82;0.82;;;;;;;;;;5001764;28;20565;-45
2022/01/28 15:22:07;;;;;;;1.00;0.85;;;;;;;;;;5007035;28;20068;-47
2022/01/28 15:24:32;;;;;;;1.60;1.05;;;;;;;;;;5000090;28;20066;-49
2022/01/28 15:26:57;;;;;;;1.15;0.98;;;;;;;;;;4987221;28;20042;-45
2022/01/28 15:37:09;;;;;;;1.85;0.50;;;;;;;;;;4997956;28;20655;-47
2022/01/28 15:39:35;;;;;;;2.13;0.93;;;;;;;;;;4297408;28;10001309;-45
2022/01/28 15:42:04;;;;;;;0.60;0.60;;;;;;;;;;4996967;28;20053;-45
2022/01/28 15:44:30;;;;;;;0.93;0.50;;;;;;;;;;4987502;28;20035;-48
2022/01/28 15:46:55;;;;;;;0.57;0.55;;;;;;;;;;4994549;28;20041;-46
2022/01/28 15:49:22;;;;;;;0.93;0.75;;;;;;;;;;4989893;28;20088;-46
2022/01/28 15:51:47;;;;;;;2.17;0.63;;;;;;;;;;4991572;28;20092;-45
2022/01/28 15:54:12;;;;;;;0.50;0.50;;;;;;;;;;4999066;28;20038;-45
2022/01/28 15:56:37;;;;;;;0.63;0.63;;;;;;;;;;5003533;28;20030;-45
2022/01/28 15:59:03;;;;;;;0.60;0.47;;;;;;;;;;5000920;28;20183;-45
2022/01/28 16:01:28;;;;;;;1.63;1.00;;;;;;;;;;5004427;28;20122;-45
2022/01/28 16:03:54;;;;;;;0.80;0.73;;;;;;;;;;4997779;28;20049;-45
2022/01/28 16:06:19;;;;;;;2.33;1.17;;;;;;;;;;5001774;28;20034;-45
2022/01/28 16:08:45;;;;;;;0.80;0.80;;;;;;;;;;4996091;28;20034;-46
2022/01/28 16:13:42;;;;;;;1.55;0.73;;;;;;;;;;4998500;28;20038;-46
2022/01/28 16:18:33;;;;;;;3.08;1.13;;;;;;;;;;4997698;28;20117;-47
2022/01/28 16:20:58;;;;;;;0.70;0.70;;;;;;;;;;4995799;28;20474;-46
2022/01/28 16:23:25;;;;;;;0.85;0.85;;;;;;;;;;5001354;28;20053;-46
2022/01/28 16:25:50;;;;;;;2.05;1.20;;;;;;;;;;4991602;28;20027;-45